Isabella — 9HSL7 — position and weather

sailwx.info

Track history (hours):
 
Tides and Currents Weather Stations Pressure Air Temp Water Temp Dewpoint Dewpoint Depression Visibility Wind Speed Wind Dir Waves Ship Positions

Isabella

Last reported at 2016-May-31 01:31 UTC. Time now 2016-May-31 01:58 UTC.
Position N 51°57' E 004°05'.

Length 244 m; draft 12.7 m.

Type: Tanker. MMSI: 215545000.

Date/timePositionNaut miles runAvg speedWind from/ knotsBaromVisibWave heightAir tempDewpointWater temp
2016-May-31 01:31N 51°57' E 004°05'0 0.0
2016-May-31 00:28N 51°57' E 004°05'0 0.0
2016-May-30 23:31N 51°57' E 004°05'0 0.0
2016-May-30 22:31N 51°57' E 004°05'0 0.0
2016-May-30 21:25N 51°57' E 004°05'0 0.0
2016-May-30 20:31N 51°57' E 004°05'0 0.0
2016-May-30 19:31N 51°57' E 004°05'0 0.0
2016-May-30 18:31N 51°57' E 004°05'0 0.0
2016-May-30 17:31N 51°57' E 004°05'0 0.0
2016-May-30 16:25N 51°57' E 004°05'0 0.0
2016-May-30 15:28N 51°57' E 004°05'0 0.0
2016-May-30 14:22N 51°57' E 004°05'0 0.0
2016-May-30 13:31N 51°57' E 004°05'0 0.0
2016-May-30 12:28N 51°57' E 004°05'0 0.0
2016-May-30 11:25N 51°57' E 004°05'0 0.0
2016-May-30 10:31N 51°57' E 004°05'0 0.4
2016-May-30 09:33N 51°57' E 004°05'8 7.9
2016-May-30 08:33N 52°01' E 003°53'1010.4
2016-May-30 07:33N 51°57' E 003°37'4 0.4
2016-May-29 22:10N 51°55' E 003°32'0 0.1
2016-May-29 20:28N 51°55' E 003°32'0 0.0
2016-May-29 19:10N 51°55' E 003°32'0 0.2
2016-May-29 18:04N 51°55' E 003°32'0 0.1
2016-May-29 17:22N 51°55' E 003°32'0 0.1
2016-May-29 16:31N 51°55' E 003°32'0 0.0
2016-May-29 15:16N 51°55' E 003°32'0 0.0
2016-May-29 13:30N 51°55' E 003°32'0 0.0
2016-May-29 12:31N 51°55' E 003°32'0 0.0
2016-May-29 11:31N 51°55' E 003°32'0 0.3
2016-May-29 10:33N 51°55' E 003°32'0 0.1
2016-May-29 09:31N 51°55' E 003°32'4 3.6
2016-May-29 08:32N 51°55' E 003°27'1312.1
2016-May-29 07:29N 51°53' E 003°06'1413.3
2016-May-29 06:27N 51°49' E 002°45'1213.0
2016-May-29 05:32N 51°41' E 002°30'1313.0
2016-May-29 04:33N 51°32' E 002°17'1212.3
2016-May-29 03:34N 51°21' E 002°09'1211.7
2016-May-29 02:33N 51°12' E 001°57'1211.7
2016-May-29 01:34N 51°05' E 001°42'1110.9
2016-May-29 00:32N 50°56' E 001°30'1010.4
2016-May-28 23:33N 50°47' E 001°24'1010.1
2016-May-28 22:33N 50°38' E 001°16'2110.6
2016-May-28 20:33N 50°27' E 000°47'1110.9
2016-May-28 19:33N 50°24' E 000°31'1110.7
2016-May-28 18:33N 50°22' E 000°15'1110.7
2016-May-28 17:33N 50°19' W 000°02'1111.1
2016-May-28 16:33N 50°16' W 000°18'1211.7
2016-May-28 15:33N 50°13' W 000°36'1312.6
2016-May-28 14:32N 50°09' W 000°55'2713.8
2016-May-28 12:33N 50°01' W 001°36'1615.5
2016-May-28 11:32N 49°57' W 001°59'1814.8
2016-May-28 10:18N 49°53' W 002°27'1113.9
2016-May-28 09:33N 49°50' W 002°43'1313.4
2016-May-28 08:33N 49°46' W 003°02'1312.7
2016-May-28 07:33N 49°41' W 003°20'1312.6
2016-May-28 06:33N 49°34' W 003°37'1212.5
2016-May-28 05:33N 49°27' W 003°53'1212.3
2016-May-28 04:33N 49°21' W 004°09'1212.0
2016-May-28 03:33N 49°15' W 004°25'1211.7
2016-May-28 02:33N 49°09' W 004°40'1211.6
2016-May-28 01:34N 49°03' W 004°55'1211.5
2016-May-28 00:33N 48°57' W 005°10'1211.9
2016-May-27 23:33N 48°50' W 005°25'1211.9
2016-May-27 22:33N 48°43' W 005°39'1312.5
2016-May-27 21:33N 48°32' W 005°48'1512.9
2016-May-27 20:23N 48°19' W 005°60'1313.3
2016-May-27 19:22N 48°07' W 006°09'1113.4
2016-May-27 18:33N 47°57' W 006°17'55512.3
2016-May-25 21:27N 39°06' W 009°56'1311.7
2016-May-25 20:18N 38°53' W 009°57'911.9
2016-May-25 19:33N 38°44' W 009°56'2411.8
2016-May-25 17:32N 38°20' W 009°50'1212.3
2016-May-25 16:31N 38°08' W 009°46'1212.1
2016-May-25 15:33N 37°57' W 009°43'23210.3
2016-May-24 17:07N 35°59' W 005°33'610.3
2016-May-24 16:33N 35°60' W 005°26'1211.0
2016-May-24 15:30N 36°02' W 005°12'15013.1
2016-May-24 04:05N 36°26' W 002°08'713.6
2016-May-24 03:33N 36°28' W 001°59'1513.2
2016-May-24 02:23N 36°31' W 001°41'4313.4
2016-May-23 23:09N 36°41' W 000°48'1014.3
2016-May-23 22:26N 36°44' W 000°36'1213.7
2016-May-23 21:34N 36°46' W 000°21'1413.7
2016-May-23 20:31N 36°50' W 000°04'3213.4
2016-May-23 18:09N 36°57' E 000°35'913.0
2016-May-23 17:29N 36°59' E 000°46'1212.9
2016-May-23 16:33N 37°02' E 001°00'34313.0
2016-May-22 14:06N 37°38' E 008°09'913.4
2016-May-22 13:28N 37°38' E 008°20'1213.4
2016-May-22 12:33N 37°39' E 008°35'1313.4
2016-May-22 11:32N 37°39' E 008°52'16412.6
2016-May-21 22:30N 37°03' E 012°13'1512.4
2016-May-21 21:16N 36°58' E 012°31'912.4
2016-May-21 20:33N 36°54' E 012°42'1812.0
2016-May-21 19:03N 36°48' E 013°03'612.2
2016-May-21 18:33N 36°47' E 013°11'1211.8
2016-May-21 17:33N 36°42' E 013°24'1212.1
2016-May-21 16:33N 36°37' E 013°38'1212.1
2016-May-21 15:33N 36°33' E 013°52'1212.1
2016-May-21 14:33N 36°29' E 014°06'1212.1
2016-May-21 13:33N 36°24' E 014°20'1212.2
2016-May-21 12:33N 36°20' E 014°34'1211.8
2016-May-21 11:33N 36°16' E 014°48'1212.2
2016-May-21 10:33N 36°16' E 015°03'  
Track history (hours):
 
Tides and Currents Weather Stations Pressure Air Temp Water Temp Dewpoint Dewpoint Depression Visibility Wind Speed Wind Dir Waves Ship Positions

Isabella

Last reported at 2016-May-31 01:31 UTC. Time now 2016-May-31 01:58 UTC.
Position N 51°57' E 004°05'.

Length 244 m; draft 12.7 m.

Type: Tanker. MMSI: 215545000.

Date/timePositionNaut miles runAvg speedWind from/ knotsBaromVisibWave heightAir tempDewpointWater temp
2016-May-31 01:31N 51°57' E 004°05'0 0.0
2016-May-31 00:28N 51°57' E 004°05'0 0.0
2016-May-30 23:31N 51°57' E 004°05'0 0.0
2016-May-30 22:31N 51°57' E 004°05'0 0.0
2016-May-30 21:25N 51°57' E 004°05'0 0.0
2016-May-30 20:31N 51°57' E 004°05'0 0.0
2016-May-30 19:31N 51°57' E 004°05'0 0.0
2016-May-30 18:31N 51°57' E 004°05'0 0.0
2016-May-30 17:31N 51°57' E 004°05'0 0.0
2016-May-30 16:25N 51°57' E 004°05'0 0.0
2016-May-30 15:28N 51°57' E 004°05'0 0.0
2016-May-30 14:22N 51°57' E 004°05'0 0.0
2016-May-30 13:31N 51°57' E 004°05'0 0.0
2016-May-30 12:28N 51°57' E 004°05'0 0.0
2016-May-30 11:25N 51°57' E 004°05'0 0.0
2016-May-30 10:31N 51°57' E 004°05'0 0.4
2016-May-30 09:33N 51°57' E 004°05'8 7.9
2016-May-30 08:33N 52°01' E 003°53'1010.4
2016-May-30 07:33N 51°57' E 003°37'4 0.4
2016-May-29 22:10N 51°55' E 003°32'0 0.1
2016-May-29 20:28N 51°55' E 003°32'0 0.0
2016-May-29 19:10N 51°55' E 003°32'0 0.2
2016-May-29 18:04N 51°55' E 003°32'0 0.1
2016-May-29 17:22N 51°55' E 003°32'0 0.1
2016-May-29 16:31N 51°55' E 003°32'0 0.0
2016-May-29 15:16N 51°55' E 003°32'0 0.0
2016-May-29 13:30N 51°55' E 003°32'0 0.0
2016-May-29 12:31N 51°55' E 003°32'0 0.0
2016-May-29 11:31N 51°55' E 003°32'0 0.3
2016-May-29 10:33N 51°55' E 003°32'0 0.1
2016-May-29 09:31N 51°55' E 003°32'4 3.6
2016-May-29 08:32N 51°55' E 003°27'1312.1
2016-May-29 07:29N 51°53' E 003°06'1413.3
2016-May-29 06:27N 51°49' E 002°45'1213.0
2016-May-29 05:32N 51°41' E 002°30'1313.0
2016-May-29 04:33N 51°32' E 002°17'1212.3
2016-May-29 03:34N 51°21' E 002°09'1211.7
2016-May-29 02:33N 51°12' E 001°57'1211.7
2016-May-29 01:34N 51°05' E 001°42'1110.9
2016-May-29 00:32N 50°56' E 001°30'1010.4
2016-May-28 23:33N 50°47' E 001°24'1010.1
2016-May-28 22:33N 50°38' E 001°16'2110.6
2016-May-28 20:33N 50°27' E 000°47'1110.9
2016-May-28 19:33N 50°24' E 000°31'1110.7
2016-May-28 18:33N 50°22' E 000°15'1110.7
2016-May-28 17:33N 50°19' W 000°02'1111.1
2016-May-28 16:33N 50°16' W 000°18'1211.7
2016-May-28 15:33N 50°13' W 000°36'1312.6
2016-May-28 14:32N 50°09' W 000°55'2713.8
2016-May-28 12:33N 50°01' W 001°36'1615.5
2016-May-28 11:32N 49°57' W 001°59'1814.8
2016-May-28 10:18N 49°53' W 002°27'1113.9
2016-May-28 09:33N 49°50' W 002°43'1313.4
2016-May-28 08:33N 49°46' W 003°02'1312.7
2016-May-28 07:33N 49°41' W 003°20'1312.6
2016-May-28 06:33N 49°34' W 003°37'1212.5
2016-May-28 05:33N 49°27' W 003°53'1212.3
2016-May-28 04:33N 49°21' W 004°09'1212.0
2016-May-28 03:33N 49°15' W 004°25'1211.7
2016-May-28 02:33N 49°09' W 004°40'1211.6
2016-May-28 01:34N 49°03' W 004°55'1211.5
2016-May-28 00:33N 48°57' W 005°10'1211.9
2016-May-27 23:33N 48°50' W 005°25'1211.9
2016-May-27 22:33N 48°43' W 005°39'1312.5
2016-May-27 21:33N 48°32' W 005°48'1512.9
2016-May-27 20:23N 48°19' W 005°60'1313.3
2016-May-27 19:22N 48°07' W 006°09'1113.4
2016-May-27 18:33N 47°57' W 006°17'55512.3
2016-May-25 21:27N 39°06' W 009°56'1311.7
2016-May-25 20:18N 38°53' W 009°57'911.9
2016-May-25 19:33N 38°44' W 009°56'2411.8
2016-May-25 17:32N 38°20' W 009°50'1212.3
2016-May-25 16:31N 38°08' W 009°46'1212.1
2016-May-25 15:33N 37°57' W 009°43'23210.3
2016-May-24 17:07N 35°59' W 005°33'610.3
2016-May-24 16:33N 35°60' W 005°26'1211.0
2016-May-24 15:30N 36°02' W 005°12'15013.1
2016-May-24 04:05N 36°26' W 002°08'713.6
2016-May-24 03:33N 36°28' W 001°59'1513.2
2016-May-24 02:23N 36°31' W 001°41'4313.4
2016-May-23 23:09N 36°41' W 000°48'1014.3
2016-May-23 22:26N 36°44' W 000°36'1213.7
2016-May-23 21:34N 36°46' W 000°21'1413.7
2016-May-23 20:31N 36°50' W 000°04'3213.4
2016-May-23 18:09N 36°57' E 000°35'913.0
2016-May-23 17:29N 36°59' E 000°46'1212.9
2016-May-23 16:33N 37°02' E 001°00'34313.0
2016-May-22 14:06N 37°38' E 008°09'913.4
2016-May-22 13:28N 37°38' E 008°20'1213.4
2016-May-22 12:33N 37°39' E 008°35'1313.4
2016-May-22 11:32N 37°39' E 008°52'16412.6
2016-May-21 22:30N 37°03' E 012°13'1512.4
2016-May-21 21:16N 36°58' E 012°31'912.4
2016-May-21 20:33N 36°54' E 012°42'1812.0
2016-May-21 19:03N 36°48' E 013°03'612.2
2016-May-21 18:33N 36°47' E 013°11'1211.8
2016-May-21 17:33N 36°42' E 013°24'1212.1
2016-May-21 16:33N 36°37' E 013°38'1212.1
2016-May-21 15:33N 36°33' E 013°52'1212.1
2016-May-21 14:33N 36°29' E 014°06'1212.1
2016-May-21 13:33N 36°24' E 014°20'1212.2
2016-May-21 12:33N 36°20' E 014°34'1211.8
2016-May-21 11:33N 36°16' E 014°48'1212.2
2016-May-21 10:33N 36°16' E 015°03'  

Dump ship's entire track history